GWS weather

Glenwood Springs Municipal Airport
Glenwood Springs, Colorado, United States

Public forecast

Using degrees Fahrenheit for public forecast. Weather courtesy of forecast.io.

Closest aviation weather report (METAR) to Glenwood Springs Municipal Airport

Closest report is Garfield County Regional Airport, 19.3 nm (35.7 km) W. Retrieved 2019/10/23 18:53 UTC (25 minutes ago):

KRIL 231853Z AUTO 28010G17KT 10SM FEW080 14/M06 A3008 RMK AO2 SLP156 T01441061

Closest aviation forecast (TAF) to Glenwood Springs Municipal Airport

Closest forecast is Garfield County Regional Airport, 19.3 nm (35.7 km) W. Retrieved 2019/10/23 18:42 UTC (36 minutes ago):

TAF KRIL 231740Z 2318/2418 VRB04KT P6SM FEW060 SCT250 FM232100 30012G26KT P6SM SCT060 BKN100 FM240100 30012KT P6SM VCSH SCT045 BKN060 FM240600 28007KT P6SM FEW045 SCT100